sensor_id;sensor_type;location;lat;lon;timestamp;P1;durP1;ratioP1;P2;durP2;ratioP2
10166;SDS011;62970;53.130;8.244;2024-02-21T00:01:34;18.77;;;16.47;;
10166;SDS011;62970;53.130;8.244;2024-02-21T00:04:03;20.60;;;16.10;;
10166;SDS011;62970;53.130;8.244;2024-02-21T00:06:32;24.17;;;17.43;;
10166;SDS011;62970;53.130;8.244;2024-02-21T00:09:02;22.17;;;18.77;;
10166;SDS011;62970;53.130;8.244;2024-02-21T00:11:31;20.73;;;17.97;;
10166;SDS011;62970;53.130;8.244;2024-02-21T00:14:00;22.43;;;18.33;;
10166;SDS011;62970;53.130;8.244;2024-02-21T00:16:32;23.30;;;19.50;;
10166;SDS011;62970;53.130;8.244;2024-02-21T00:19:01;27.47;;;20.43;;
10166;SDS011;62970;53.130;8.244;2024-02-21T00:21:30;25.20;;;20.00;;
10166;SDS011;62970;53.130;8.244;2024-02-21T00:23:59;25.53;;;19.60;;
10166;SDS011;62970;53.130;8.244;2024-02-21T00:26:28;21.43;;;18.80;;
10166;SDS011;62970;53.130;8.244;2024-02-21T00:28:58;21.80;;;19.10;;
10166;SDS011;62970;53.130;8.244;2024-02-21T00:31:27;23.00;;;19.60;;
10166;SDS011;62970;53.130;8.244;2024-02-21T00:33:58;22.83;;;18.70;;
10166;SDS011;62970;53.130;8.244;2024-02-21T00:36:28;23.73;;;19.27;;
10166;SDS011;62970;53.130;8.244;2024-02-21T00:38:57;20.20;;;17.77;;
10166;SDS011;62970;53.130;8.244;2024-02-21T00:41:26;24.80;;;19.80;;
10166;SDS011;62970;53.130;8.244;2024-02-21T00:43:55;24.23;;;18.00;;
10166;SDS011;62970;53.130;8.244;2024-02-21T00:46:24;21.67;;;18.43;;
10166;SDS011;62970;53.130;8.244;2024-02-21T00:48:53;24.43;;;19.07;;
10166;SDS011;62970;53.130;8.244;2024-02-21T00:51:25;25.03;;;18.53;;
10166;SDS011;62970;53.130;8.244;2024-02-21T00:53:54;23.40;;;18.00;;
10166;SDS011;62970;53.130;8.244;2024-02-21T00:56:24;21.80;;;17.47;;
10166;SDS011;62970;53.130;8.244;2024-02-21T00:58:53;22.40;;;18.13;;
10166;SDS011;62970;53.130;8.244;2024-02-21T01:01:22;22.10;;;17.13;;
10166;SDS011;62970;53.130;8.244;2024-02-21T01:03:52;21.80;;;16.67;;
10166;SDS011;62970;53.130;8.244;2024-02-21T01:06:21;20.30;;;16.87;;
10166;SDS011;62970;53.130;8.244;2024-02-21T01:08:53;19.93;;;16.27;;
10166;SDS011;62970;53.130;8.244;2024-02-21T01:11:22;20.43;;;16.77;;
10166;SDS011;62970;53.130;8.244;2024-02-21T01:13:51;20.53;;;16.77;;
10166;SDS011;62970;53.130;8.244;2024-02-21T01:16:20;21.17;;;16.57;;
10166;SDS011;62970;53.130;8.244;2024-02-21T01:18:49;21.60;;;16.63;;
10166;SDS011;62970;53.130;8.244;2024-02-21T01:21:18;19.37;;;16.97;;
10166;SDS011;62970;53.130;8.244;2024-02-21T01:23:53;22.40;;;16.53;;
10166;SDS011;62970;53.130;8.244;2024-02-21T01:26:22;18.23;;;16.07;;
10166;SDS011;62970;53.130;8.244;2024-02-21T01:28:51;21.73;;;16.27;;
10166;SDS011;62970;53.130;8.244;2024-02-21T01:31:20;18.57;;;16.53;;
10166;SDS011;62970;53.130;8.244;2024-02-21T01:33:50;21.30;;;16.13;;
10166;SDS011;62970;53.130;8.244;2024-02-21T01:36:19;19.37;;;16.30;;
10166;SDS011;62970;53.130;8.244;2024-02-21T01:38:48;21.03;;;15.27;;
10166;SDS011;62970;53.130;8.244;2024-02-21T01:41:20;18.27;;;14.97;;
10166;SDS011;62970;53.130;8.244;2024-02-21T01:43:49;20.00;;;16.17;;
10166;SDS011;62970;53.130;8.244;2024-02-21T01:46:18;22.47;;;15.00;;
10166;SDS011;62970;53.130;8.244;2024-02-21T01:48:47;19.63;;;15.20;;
10166;SDS011;62970;53.130;8.244;2024-02-21T01:51:17;20.37;;;15.17;;
10166;SDS011;62970;53.130;8.244;2024-02-21T01:53:46;18.83;;;14.83;;
10166;SDS011;62970;53.130;8.244;2024-02-21T01:56:16;18.47;;;15.47;;
10166;SDS011;62970;53.130;8.244;2024-02-21T01:58:48;20.63;;;15.63;;
10166;SDS011;62970;53.130;8.244;2024-02-21T02:01:17;21.87;;;15.63;;
10166;SDS011;62970;53.130;8.244;2024-02-21T02:03:47;17.40;;;15.00;;
10166;SDS011;62970;53.130;8.244;2024-02-21T02:06:17;18.47;;;15.10;;
10166;SDS011;62970;53.130;8.244;2024-02-21T02:08:47;19.30;;;14.53;;
10166;SDS011;62970;53.130;8.244;2024-02-21T02:11:16;18.73;;;14.93;;
10166;SDS011;62970;53.130;8.244;2024-02-21T02:13:48;19.00;;;14.30;;
10166;SDS011;62970;53.130;8.244;2024-02-21T02:16:17;20.97;;;15.77;;
10166;SDS011;62970;53.130;8.244;2024-02-21T02:18:46;19.83;;;14.37;;
10166;SDS011;62970;53.130;8.244;2024-02-21T02:21:16;19.93;;;14.33;;
10166;SDS011;62970;53.130;8.244;2024-02-21T02:24:00;17.63;;;14.00;;
10166;SDS011;62970;53.130;8.244;2024-02-21T02:26:30;21.47;;;13.87;;
10166;SDS011;62970;53.130;8.244;2024-02-21T02:29:00;18.13;;;13.63;;
10166;SDS011;62970;53.130;8.244;2024-02-21T02:31:29;20.67;;;14.93;;
10166;SDS011;62970;53.130;8.244;2024-02-21T02:34:00;19.10;;;14.20;;
10166;SDS011;62970;53.130;8.244;2024-02-21T02:36:29;19.40;;;14.20;;
10166;SDS011;62970;53.130;8.244;2024-02-21T02:39:02;21.80;;;14.33;;
10166;SDS011;62970;53.130;8.244;2024-02-21T02:41:34;21.90;;;14.50;;
10166;SDS011;62970;53.130;8.244;2024-02-21T02:44:03;20.33;;;13.30;;
10166;SDS011;62970;53.130;8.244;2024-02-21T02:46:32;17.40;;;13.20;;
10166;SDS011;62970;53.130;8.244;2024-02-21T02:49:02;18.00;;;14.17;;
10166;SDS011;62970;53.130;8.244;2024-02-21T02:51:32;17.20;;;13.63;;
10166;SDS011;62970;53.130;8.244;2024-02-21T02:54:03;21.13;;;14.20;;
10166;SDS011;62970;53.130;8.244;2024-02-21T02:56:33;21.20;;;14.63;;
10166;SDS011;62970;53.130;8.244;2024-02-21T02:59:02;15.90;;;13.37;;
10166;SDS011;62970;53.130;8.244;2024-02-21T03:01:33;17.60;;;13.77;;
10166;SDS011;62970;53.130;8.244;2024-02-21T03:04:03;20.27;;;13.67;;
10166;SDS011;62970;53.130;8.244;2024-02-21T03:06:32;17.27;;;14.27;;
10166;SDS011;62970;53.130;8.244;2024-02-21T03:09:04;18.87;;;14.87;;
10166;SDS011;62970;53.130;8.244;2024-02-21T03:11:34;18.73;;;14.90;;
10166;SDS011;62970;53.130;8.244;2024-02-21T03:14:06;18.50;;;13.50;;
10166;SDS011;62970;53.130;8.244;2024-02-21T03:16:35;20.23;;;13.90;;
10166;SDS011;62970;53.130;8.244;2024-02-21T03:19:04;18.03;;;13.90;;
10166;SDS011;62970;53.130;8.244;2024-02-21T03:21:33;18.67;;;13.67;;
10166;SDS011;62970;53.130;8.244;2024-02-21T03:24:05;20.53;;;14.23;;
10166;SDS011;62970;53.130;8.244;2024-02-21T03:26:36;20.37;;;14.23;;
10166;SDS011;62970;53.130;8.244;2024-02-21T03:29:05;18.73;;;13.87;;
10166;SDS011;62970;53.130;8.244;2024-02-21T03:31:34;17.80;;;14.17;;
10166;SDS011;62970;53.130;8.244;2024-02-21T03:34:04;20.63;;;14.03;;
10166;SDS011;62970;53.130;8.244;2024-02-21T03:36:33;17.10;;;14.67;;
10166;SDS011;62970;53.130;8.244;2024-02-21T03:39:05;18.77;;;14.70;;
10166;SDS011;62970;53.130;8.244;2024-02-21T03:41:35;15.43;;;13.57;;
10166;SDS011;62970;53.130;8.244;2024-02-21T03:44:04;18.43;;;13.97;;
10166;SDS011;62970;53.130;8.244;2024-02-21T03:46:33;18.80;;;13.00;;
10166;SDS011;62970;53.130;8.244;2024-02-21T03:49:03;15.30;;;13.43;;
10166;SDS011;62970;53.130;8.244;2024-02-21T03:51:32;18.37;;;12.67;;
10166;SDS011;62970;53.130;8.244;2024-02-21T03:54:01;18.57;;;13.53;;
10166;SDS011;62970;53.130;8.244;2024-02-21T03:56:36;15.50;;;13.30;;
10166;SDS011;62970;53.130;8.244;2024-02-21T03:59:06;17.67;;;13.63;;
10166;SDS011;62970;53.130;8.244;2024-02-21T04:01:35;16.37;;;12.87;;
10166;SDS011;62970;53.130;8.244;2024-02-21T04:04:05;14.03;;;12.53;;
10166;SDS011;62970;53.130;8.244;2024-02-21T04:06:34;14.60;;;13.07;;
10166;SDS011;62970;53.130;8.244;2024-02-21T04:09:06;14.73;;;11.63;;
10166;SDS011;62970;53.130;8.244;2024-02-21T04:11:36;14.87;;;12.07;;
10166;SDS011;62970;53.130;8.244;2024-02-21T04:14:05;14.77;;;11.77;;
10166;SDS011;62970;53.130;8.244;2024-02-21T04:16:34;13.70;;;12.20;;
10166;SDS011;62970;53.130;8.244;2024-02-21T04:19:03;15.00;;;12.47;;
10166;SDS011;62970;53.130;8.244;2024-02-21T04:21:33;12.80;;;11.17;;
10166;SDS011;62970;53.130;8.244;2024-02-21T04:24:02;13.60;;;12.20;;
10166;SDS011;62970;53.130;8.244;2024-02-21T04:26:36;13.87;;;10.87;;
10166;SDS011;62970;53.130;8.244;2024-02-21T04:29:05;14.37;;;11.23;;
10166;SDS011;62970;53.130;8.244;2024-02-21T04:31:35;11.97;;;10.70;;
10166;SDS011;62970;53.130;8.244;2024-02-21T04:34:05;11.60;;;10.40;;
10166;SDS011;62970;53.130;8.244;2024-02-21T04:36:34;13.37;;;10.57;;
10166;SDS011;62970;53.130;8.244;2024-02-21T04:39:06;11.97;;;10.63;;
10166;SDS011;62970;53.130;8.244;2024-02-21T04:41:36;12.57;;;11.07;;
10166;SDS011;62970;53.130;8.244;2024-02-21T04:44:06;10.50;;;9.43;;
10166;SDS011;62970;53.130;8.244;2024-02-21T04:46:35;11.27;;;9.53;;
10166;SDS011;62970;53.130;8.244;2024-02-21T04:49:04;12.13;;;10.50;;
10166;SDS011;62970;53.130;8.244;2024-02-21T04:51:33;11.00;;;9.47;;
10166;SDS011;62970;53.130;8.244;2024-02-21T04:54:02;11.23;;;10.03;;
10166;SDS011;62970;53.130;8.244;2024-02-21T04:56:34;10.10;;;9.20;;
10166;SDS011;62970;53.130;8.244;2024-02-21T04:59:03;11.37;;;9.40;;
10166;SDS011;62970;53.130;8.244;2024-02-21T05:01:32;10.37;;;9.37;;
10166;SDS011;62970;53.130;8.244;2024-02-21T05:04:02;10.37;;;9.33;;
10166;SDS011;62970;53.130;8.244;2024-02-21T05:06:33;9.50;;;8.60;;
10166;SDS011;62970;53.130;8.244;2024-02-21T05:09:09;10.00;;;9.00;;
10166;SDS011;62970;53.130;8.244;2024-02-21T05:11:38;10.23;;;9.23;;
10166;SDS011;62970;53.130;8.244;2024-02-21T05:14:08;9.77;;;8.77;;
10166;SDS011;62970;53.130;8.244;2024-02-21T05:16:38;10.20;;;9.20;;
10166;SDS011;62970;53.130;8.244;2024-02-21T05:19:07;9.43;;;8.43;;
10166;SDS011;62970;53.130;8.244;2024-02-21T05:21:37;9.10;;;8.30;;
10166;SDS011;62970;53.130;8.244;2024-02-21T05:24:09;8.83;;;8.03;;
10166;SDS011;62970;53.130;8.244;2024-02-21T05:26:38;9.50;;;8.60;;
10166;SDS011;62970;53.130;8.244;2024-02-21T05:29:07;8.83;;;7.93;;
10166;SDS011;62970;53.130;8.244;2024-02-21T05:31:54;9.40;;;8.50;;
10166;SDS011;62970;53.130;8.244;2024-02-21T05:34:25;9.60;;;8.60;;
10166;SDS011;62970;53.130;8.244;2024-02-21T05:36:54;9.80;;;8.90;;
10166;SDS011;62970;53.130;8.244;2024-02-21T05:39:28;9.40;;;8.27;;
10166;SDS011;62970;53.130;8.244;2024-02-21T05:41:57;8.60;;;7.70;;
10166;SDS011;62970;53.130;8.244;2024-02-21T05:44:26;8.17;;;7.37;;
10166;SDS011;62970;53.130;8.244;2024-02-21T05:46:55;8.73;;;7.93;;
10166;SDS011;62970;53.130;8.244;2024-02-21T05:49:24;7.90;;;7.20;;
10166;SDS011;62970;53.130;8.244;2024-02-21T05:51:55;7.77;;;7.07;;
10166;SDS011;62970;53.130;8.244;2024-02-21T05:54:24;8.67;;;7.87;;
10166;SDS011;62970;53.130;8.244;2024-02-21T05:56:56;8.23;;;7.43;;
10166;SDS011;62970;53.130;8.244;2024-02-21T05:59:25;8.00;;;7.20;;
10166;SDS011;62970;53.130;8.244;2024-02-21T06:01:56;7.83;;;7.13;;
10166;SDS011;62970;53.130;8.244;2024-02-21T06:04:25;7.60;;;6.90;;
10166;SDS011;62970;53.130;8.244;2024-02-21T06:06:54;7.87;;;7.20;;
10166;SDS011;62970;53.130;8.244;2024-02-21T06:09:28;9.17;;;7.30;;
10166;SDS011;62970;53.130;8.244;2024-02-21T06:11:58;8.30;;;7.60;;
10166;SDS011;62970;53.130;8.244;2024-02-21T06:14:27;8.50;;;7.70;;
10166;SDS011;62970;53.130;8.244;2024-02-21T06:16:56;8.90;;;8.10;;
10166;SDS011;62970;53.130;8.244;2024-02-21T06:19:26;8.73;;;7.93;;
10166;SDS011;62970;53.130;8.244;2024-02-21T06:21:55;9.10;;;8.20;;
10166;SDS011;62970;53.130;8.244;2024-02-21T06:24:24;9.20;;;8.30;;
10166;SDS011;62970;53.130;8.244;2024-02-21T06:26:56;8.90;;;8.10;;
10166;SDS011;62970;53.130;8.244;2024-02-21T06:29:25;9.13;;;8.23;;
10166;SDS011;62970;53.130;8.244;2024-02-21T06:31:54;9.17;;;8.23;;
10166;SDS011;62970;53.130;8.244;2024-02-21T06:34:23;9.40;;;8.33;;
10166;SDS011;62970;53.130;8.244;2024-02-21T06:36:53;9.40;;;8.30;;
10166;SDS011;62970;53.130;8.244;2024-02-21T06:39:22;8.87;;;8.07;;
10166;SDS011;62970;53.130;8.244;2024-02-21T06:41:53;11.00;;;8.90;;
10166;SDS011;62970;53.130;8.244;2024-02-21T06:44:22;10.47;;;9.47;;
10166;SDS011;62970;53.130;8.244;2024-02-21T06:46:52;10.30;;;9.30;;
10166;SDS011;62970;53.130;8.244;2024-02-21T06:49:21;9.93;;;9.00;;
10166;SDS011;62970;53.130;8.244;2024-02-21T06:51:50;11.03;;;9.23;;
10166;SDS011;62970;53.130;8.244;2024-02-21T06:54:20;12.33;;;9.50;;
10166;SDS011;62970;53.130;8.244;2024-02-21T06:56:49;11.93;;;10.23;;
10166;SDS011;62970;53.130;8.244;2024-02-21T06:59:20;12.13;;;10.10;;
10166;SDS011;62970;53.130;8.244;2024-02-21T07:01:52;12.03;;;10.87;;
10166;SDS011;62970;53.130;8.244;2024-02-21T07:04:23;11.83;;;10.63;;
10166;SDS011;62970;53.130;8.244;2024-02-21T07:06:54;11.80;;;10.50;;
10166;SDS011;62970;53.130;8.244;2024-02-21T07:09:23;12.80;;;11.27;;
10166;SDS011;62970;53.130;8.244;2024-02-21T07:11:53;11.97;;;10.30;;
10166;SDS011;62970;53.130;8.244;2024-02-21T07:14:27;12.23;;;10.80;;
10166;SDS011;62970;53.130;8.244;2024-02-21T07:16:57;14.23;;;10.97;;
10166;SDS011;62970;53.130;8.244;2024-02-21T07:19:26;13.77;;;11.53;;
10166;SDS011;62970;53.130;8.244;2024-02-21T07:21:55;12.67;;;11.37;;
10166;SDS011;62970;53.130;8.244;2024-02-21T07:24:25;14.40;;;11.70;;
10166;SDS011;62970;53.130;8.244;2024-02-21T07:26:54;16.40;;;12.43;;
10166;SDS011;62970;53.130;8.244;2024-02-21T07:29:32;14.70;;;12.23;;
10166;SDS011;62970;53.130;8.244;2024-02-21T07:32:01;17.27;;;13.37;;
10166;SDS011;62970;53.130;8.244;2024-02-21T07:34:31;19.60;;;12.93;;
10166;SDS011;62970;53.130;8.244;2024-02-21T07:37:00;18.47;;;13.90;;
10166;SDS011;62970;53.130;8.244;2024-02-21T07:39:29;14.50;;;12.63;;
10166;SDS011;62970;53.130;8.244;2024-02-21T07:41:59;15.37;;;13.03;;
10166;SDS011;62970;53.130;8.244;2024-02-21T07:44:29;17.03;;;13.43;;
10166;SDS011;62970;53.130;8.244;2024-02-21T07:47:01;16.03;;;12.77;;
10166;SDS011;62970;53.130;8.244;2024-02-21T07:49:32;16.40;;;13.93;;
10166;SDS011;62970;53.130;8.244;2024-02-21T07:52:01;16.00;;;13.37;;
10166;SDS011;62970;53.130;8.244;2024-02-21T07:54:31;17.00;;;13.57;;
10166;SDS011;62970;53.130;8.244;2024-02-21T07:57:00;16.50;;;13.37;;
10166;SDS011;62970;53.130;8.244;2024-02-21T07:59:32;14.57;;;13.03;;
10166;SDS011;62970;53.130;8.244;2024-02-21T08:02:01;18.23;;;14.07;;
10166;SDS011;62970;53.130;8.244;2024-02-21T08:04:31;18.23;;;13.17;;
10166;SDS011;62970;53.130;8.244;2024-02-21T08:07:01;17.90;;;14.30;;
10166;SDS011;62970;53.130;8.244;2024-02-21T08:09:30;17.50;;;13.87;;
10166;SDS011;62970;53.130;8.244;2024-02-21T08:12:00;19.03;;;14.53;;
10166;SDS011;62970;53.130;8.244;2024-02-21T08:14:31;20.57;;;15.23;;
10166;SDS011;62970;53.130;8.244;2024-02-21T08:17:01;22.23;;;14.43;;
10166;SDS011;62970;53.130;8.244;2024-02-21T08:19:31;20.13;;;13.87;;
10166;SDS011;62970;53.130;8.244;2024-02-21T08:22:00;16.33;;;13.90;;
10166;SDS011;62970;53.130;8.244;2024-02-21T08:24:32;16.80;;;13.93;;
10166;SDS011;62970;53.130;8.244;2024-02-21T08:27:01;20.93;;;14.50;;
10166;SDS011;62970;53.130;8.244;2024-02-21T08:29:34;15.97;;;14.03;;
10166;SDS011;62970;53.130;8.244;2024-02-21T08:32:03;17.40;;;13.97;;
10166;SDS011;62970;53.130;8.244;2024-02-21T08:34:33;19.93;;;14.20;;
10166;SDS011;62970;53.130;8.244;2024-02-21T08:37:02;19.33;;;13.97;;
10166;SDS011;62970;53.130;8.244;2024-02-21T08:39:33;18.20;;;13.97;;
10166;SDS011;62970;53.130;8.244;2024-02-21T08:42:02;18.93;;;14.03;;
10166;SDS011;62970;53.130;8.244;2024-02-21T08:44:36;19.33;;;14.23;;
10166;SDS011;62970;53.130;8.244;2024-02-21T08:47:09;17.97;;;13.57;;
10166;SDS011;62970;53.130;8.244;2024-02-21T08:49:38;16.43;;;14.13;;
10166;SDS011;62970;53.130;8.244;2024-02-21T08:52:07;22.43;;;14.13;;
10166;SDS011;62970;53.130;8.244;2024-02-21T08:54:36;16.70;;;14.50;;
10166;SDS011;62970;53.130;8.244;2024-02-21T08:57:06;17.13;;;14.23;;
10166;SDS011;62970;53.130;8.244;2024-02-21T08:59:37;17.63;;;14.00;;
10166;SDS011;62970;53.130;8.244;2024-02-21T09:02:08;15.40;;;13.53;;
10166;SDS011;62970;53.130;8.244;2024-02-21T09:04:37;18.17;;;13.57;;
10166;SDS011;62970;53.130;8.244;2024-02-21T09:07:06;16.67;;;14.73;;
10166;SDS011;62970;53.130;8.244;2024-02-21T09:09:35;17.33;;;14.27;;
10166;SDS011;62970;53.130;8.244;2024-02-21T09:12:05;18.47;;;14.13;;
10166;SDS011;62970;53.130;8.244;2024-02-21T09:14:38;16.73;;;14.80;;
10166;SDS011;62970;53.130;8.244;2024-02-21T09:17:07;16.00;;;13.70;;
10166;SDS011;62970;53.130;8.244;2024-02-21T09:19:37;20.83;;;14.97;;
10166;SDS011;62970;53.130;8.244;2024-02-21T09:22:09;20.17;;;14.73;;
10166;SDS011;62970;53.130;8.244;2024-02-21T09:24:38;16.47;;;14.77;;
10166;SDS011;62970;53.130;8.244;2024-02-21T09:27:07;18.53;;;15.33;;
10166;SDS011;62970;53.130;8.244;2024-02-21T09:29:39;16.57;;;14.33;;
10166;SDS011;62970;53.130;8.244;2024-02-21T09:32:08;17.97;;;15.27;;
10166;SDS011;62970;53.130;8.244;2024-02-21T09:34:37;19.20;;;15.53;;
10166;SDS011;62970;53.130;8.244;2024-02-21T09:37:06;22.27;;;16.20;;
10166;SDS011;62970;53.130;8.244;2024-02-21T09:39:36;17.00;;;14.67;;
10166;SDS011;62970;53.130;8.244;2024-02-21T09:42:06;17.93;;;14.77;;
10166;SDS011;62970;53.130;8.244;2024-02-21T09:44:42;18.70;;;14.67;;
10166;SDS011;62970;53.130;8.244;2024-02-21T09:47:16;15.53;;;13.90;;
10166;SDS011;62970;53.130;8.244;2024-02-21T09:49:51;19.50;;;14.87;;
10166;SDS011;62970;53.130;8.244;2024-02-21T09:52:22;19.40;;;14.37;;
10166;SDS011;62970;53.130;8.244;2024-02-21T09:54:52;17.80;;;14.07;;
10166;SDS011;62970;53.130;8.244;2024-02-21T09:57:22;17.67;;;14.37;;
10166;SDS011;62970;53.130;8.244;2024-02-21T09:59:55;15.30;;;13.70;;
10166;SDS011;62970;53.130;8.244;2024-02-21T10:02:25;15.30;;;13.67;;
10166;SDS011;62970;53.130;8.244;2024-02-21T10:04:55;18.13;;;14.03;;
10166;SDS011;62970;53.130;8.244;2024-02-21T10:07:24;15.73;;;12.90;;
10166;SDS011;62970;53.130;8.244;2024-02-21T10:10:00;16.57;;;12.93;;
10166;SDS011;62970;53.130;8.244;2024-02-21T10:12:30;14.07;;;12.67;;
10166;SDS011;62970;53.130;8.244;2024-02-21T10:15:05;16.17;;;13.37;;
10166;SDS011;62970;53.130;8.244;2024-02-21T10:17:35;17.50;;;13.00;;
10166;SDS011;62970;53.130;8.244;2024-02-21T10:20:08;14.53;;;12.97;;
10166;SDS011;62970;53.130;8.244;2024-02-21T10:22:40;13.70;;;12.27;;
10166;SDS011;62970;53.130;8.244;2024-02-21T10:25:10;13.67;;;12.27;;
10166;SDS011;62970;53.130;8.244;2024-02-21T10:27:40;14.00;;;12.33;;
10166;SDS011;62970;53.130;8.244;2024-02-21T10:30:15;17.73;;;13.23;;
10166;SDS011;62970;53.130;8.244;2024-02-21T10:32:49;17.17;;;12.60;;
10166;SDS011;62970;53.130;8.244;2024-02-21T10:35:26;14.70;;;12.50;;
10166;SDS011;62970;53.130;8.244;2024-02-21T10:37:56;13.77;;;12.27;;
10166;SDS011;62970;53.130;8.244;2024-02-21T10:40:26;14.53;;;12.07;;
10166;SDS011;62970;53.130;8.244;2024-02-21T10:42:58;15.43;;;11.83;;
10166;SDS011;62970;53.130;8.244;2024-02-21T10:45:32;14.13;;;12.27;;
10166;SDS011;62970;53.130;8.244;2024-02-21T10:48:08;13.93;;;12.27;;
10166;SDS011;62970;53.130;8.244;2024-02-21T10:50:44;13.83;;;11.77;;
10166;SDS011;62970;53.130;8.244;2024-02-21T10:53:28;14.13;;;12.47;;
10166;SDS011;62970;53.130;8.244;2024-02-21T10:56:11;14.60;;;12.10;;
10166;SDS011;62970;53.130;8.244;2024-02-21T10:58:57;14.63;;;11.97;;
10166;SDS011;62970;53.130;8.244;2024-02-21T11:01:31;14.17;;;12.07;;
10166;SDS011;62970;53.130;8.244;2024-02-21T11:04:01;17.73;;;12.80;;
10166;SDS011;62970;53.130;8.244;2024-02-21T11:06:33;13.93;;;12.53;;
10166;SDS011;62970;53.130;8.244;2024-02-21T11:09:05;18.00;;;13.33;;
10166;SDS011;62970;53.130;8.244;2024-02-21T11:11:35;14.83;;;12.40;;
10166;SDS011;62970;53.130;8.244;2024-02-21T11:14:07;13.70;;;11.47;;
10166;SDS011;62970;53.130;8.244;2024-02-21T11:16:41;13.97;;;11.87;;
10166;SDS011;62970;53.130;8.244;2024-02-21T11:19:19;13.23;;;11.83;;
10166;SDS011;62970;53.130;8.244;2024-02-21T11:21:49;13.23;;;10.37;;
10166;SDS011;62970;53.130;8.244;2024-02-21T11:24:26;14.37;;;11.50;;
10166;SDS011;62970;53.130;8.244;2024-02-21T11:26:57;14.50;;;11.43;;
10166;SDS011;62970;53.130;8.244;2024-02-21T11:29:40;12.93;;;10.93;;
10166;SDS011;62970;53.130;8.244;2024-02-21T11:32:14;12.90;;;11.37;;
10166;SDS011;62970;53.130;8.244;2024-02-21T11:34:53;13.03;;;10.90;;
10166;SDS011;62970;53.130;8.244;2024-02-21T11:37:27;15.07;;;10.23;;
10166;SDS011;62970;53.130;8.244;2024-02-21T11:39:58;11.67;;;10.10;;
10166;SDS011;62970;53.130;8.244;2024-02-21T11:42:28;13.90;;;10.87;;
10166;SDS011;62970;53.130;8.244;2024-02-21T11:44:58;11.30;;;10.20;;
10166;SDS011;62970;53.130;8.244;2024-02-21T11:47:31;13.43;;;9.60;;
10166;SDS011;62970;53.130;8.244;2024-02-21T11:50:00;12.80;;;9.30;;
10166;SDS011;62970;53.130;8.244;2024-02-21T11:52:30;12.43;;;8.77;;
10166;SDS011;62970;53.130;8.244;2024-02-21T11:55:00;11.27;;;9.07;;
10166;SDS011;62970;53.130;8.244;2024-02-21T11:57:33;10.20;;;9.17;;
10166;SDS011;62970;53.130;8.244;2024-02-21T12:00:13;10.17;;;8.23;;
10166;SDS011;62970;53.130;8.244;2024-02-21T12:02:52;9.87;;;7.50;;
10166;SDS011;62970;53.130;8.244;2024-02-21T12:05:26;8.77;;;7.43;;
10166;SDS011;62970;53.130;8.244;2024-02-21T12:07:57;9.93;;;7.67;;
10166;SDS011;62970;53.130;8.244;2024-02-21T12:10:26;9.60;;;7.67;;
10166;SDS011;62970;53.130;8.244;2024-02-21T12:13:04;10.17;;;7.77;;
10166;SDS011;62970;53.130;8.244;2024-02-21T12:15:35;9.03;;;7.43;;
10166;SDS011;62970;53.130;8.244;2024-02-21T12:18:09;9.63;;;7.70;;
10166;SDS011;62970;53.130;8.244;2024-02-21T12:20:39;8.90;;;6.90;;
10166;SDS011;62970;53.130;8.244;2024-02-21T12:23:09;10.63;;;7.53;;
10166;SDS011;62970;53.130;8.244;2024-02-21T12:25:39;8.97;;;7.27;;
10166;SDS011;62970;53.130;8.244;2024-02-21T12:28:08;8.13;;;6.57;;
10166;SDS011;62970;53.130;8.244;2024-02-21T12:30:40;8.63;;;7.00;;
10166;SDS011;62970;53.130;8.244;2024-02-21T12:33:12;8.27;;;6.67;;
10166;SDS011;62970;53.130;8.244;2024-02-21T12:35:42;10.03;;;6.23;;
10166;SDS011;62970;53.130;8.244;2024-02-21T12:38:11;7.17;;;6.20;;
10166;SDS011;62970;53.130;8.244;2024-02-21T12:40:40;10.37;;;7.07;;
10166;SDS011;62970;53.130;8.244;2024-02-21T12:43:09;8.83;;;6.33;;
10166;SDS011;62970;53.130;8.244;2024-02-21T12:45:38;8.63;;;6.13;;
10166;SDS011;62970;53.130;8.244;2024-02-21T12:48:08;8.70;;;5.80;;
10166;SDS011;62970;53.130;8.244;2024-02-21T12:50:42;7.77;;;5.70;;
10166;SDS011;62970;53.130;8.244;2024-02-21T12:53:18;6.37;;;5.63;;
10166;SDS011;62970;53.130;8.244;2024-02-21T12:55:51;6.97;;;5.37;;
10166;SDS011;62970;53.130;8.244;2024-02-21T12:58:21;8.00;;;5.13;;
10166;SDS011;62970;53.130;8.244;2024-02-21T13:00:50;7.47;;;5.80;;
10166;SDS011;62970;53.130;8.244;2024-02-21T13:03:22;7.83;;;5.57;;
10166;SDS011;62970;53.130;8.244;2024-02-21T13:05:53;8.23;;;5.63;;
10166;SDS011;62970;53.130;8.244;2024-02-21T13:08:24;7.60;;;5.63;;
10166;SDS011;62970;53.130;8.244;2024-02-21T13:10:53;8.13;;;5.77;;
10166;SDS011;62970;53.130;8.244;2024-02-21T13:13:23;7.83;;;5.87;;
10166;SDS011;62970;53.130;8.244;2024-02-21T13:15:52;7.13;;;5.83;;
10166;SDS011;62970;53.130;8.244;2024-02-21T13:18:21;6.20;;;5.60;;
10166;SDS011;62970;53.130;8.244;2024-02-21T13:20:50;6.40;;;5.17;;
10166;SDS011;62970;53.130;8.244;2024-02-21T13:23:23;7.60;;;6.23;;
10166;SDS011;62970;53.130;8.244;2024-02-21T13:25:52;8.53;;;5.87;;
10166;SDS011;62970;53.130;8.244;2024-02-21T13:28:21;6.40;;;5.67;;
10166;SDS011;62970;53.130;8.244;2024-02-21T13:30:50;8.70;;;6.23;;
10166;SDS011;62970;53.130;8.244;2024-02-21T13:33:20;6.63;;;5.90;;
10166;SDS011;62970;53.130;8.244;2024-02-21T13:35:49;6.33;;;5.73;;
10166;SDS011;62970;53.130;8.244;2024-02-21T13:41:36;5.63;;;5.00;;
10166;SDS011;62970;53.130;8.244;2024-02-21T13:44:06;5.93;;;5.27;;
10166;SDS011;62970;53.130;8.244;2024-02-21T13:46:35;5.87;;;5.23;;
10166;SDS011;62970;53.130;8.244;2024-02-21T13:49:04;6.27;;;4.87;;
10166;SDS011;62970;53.130;8.244;2024-02-21T13:51:34;5.20;;;4.70;;
10166;SDS011;62970;53.130;8.244;2024-02-21T13:54:06;5.90;;;5.30;;
10166;SDS011;62970;53.130;8.244;2024-02-21T13:56:39;5.93;;;5.33;;
10166;SDS011;62970;53.130;8.244;2024-02-21T13:59:08;7.17;;;5.17;;
10166;SDS011;62970;53.130;8.244;2024-02-21T14:01:37;7.23;;;5.50;;
10166;SDS011;62970;53.130;8.244;2024-02-21T14:04:06;7.30;;;5.10;;
10166;SDS011;62970;53.130;8.244;2024-02-21T14:06:35;7.23;;;6.50;;
10166;SDS011;62970;53.130;8.244;2024-02-21T14:09:08;8.27;;;7.37;;
10166;SDS011;62970;53.130;8.244;2024-02-21T14:11:39;8.10;;;7.33;;
10166;SDS011;62970;53.130;8.244;2024-02-21T14:14:10;9.53;;;7.90;;
10166;SDS011;62970;53.130;8.244;2024-02-21T14:16:40;10.40;;;9.37;;
10166;SDS011;62970;53.130;8.244;2024-02-21T14:19:09;9.80;;;9.00;;
10166;SDS011;62970;53.130;8.244;2024-02-21T14:21:38;11.20;;;10.07;;
10166;SDS011;62970;53.130;8.244;2024-02-21T14:24:07;12.07;;;10.87;;
10166;SDS011;62970;53.130;8.244;2024-02-21T14:26:36;11.70;;;10.50;;
10166;SDS011;62970;53.130;8.244;2024-02-21T14:29:09;13.03;;;11.73;;
10166;SDS011;62970;53.130;8.244;2024-02-21T14:31:38;12.83;;;11.73;;
10166;SDS011;62970;53.130;8.244;2024-02-21T14:34:07;13.10;;;11.90;;
10166;SDS011;62970;53.130;8.244;2024-02-21T14:36:36;12.67;;;11.37;;
10166;SDS011;62970;53.130;8.244;2024-02-21T14:39:06;13.77;;;12.47;;
10166;SDS011;62970;53.130;8.244;2024-02-21T14:41:35;14.10;;;12.80;;
10166;SDS011;62970;53.130;8.244;2024-02-21T14:44:07;13.30;;;12.20;;
10166;SDS011;62970;53.130;8.244;2024-02-21T14:46:36;13.37;;;12.17;;
10166;SDS011;62970;53.130;8.244;2024-02-21T14:49:06;12.37;;;11.27;;
10166;SDS011;62970;53.130;8.244;2024-02-21T14:51:35;12.83;;;11.53;;